CW5468 Weather Reports


Display with metric or nautical units.
time (UTC)temp
F
wind
direction
speed
MPH
gust
MPH
rain 1hr
in
rain 24hr
in
rain mn
in
humidity
%
barometer
mb
20191213022808 38 141 3.0 7.0 0.02 0.24 0.09 94 999.1
20191213022309 38 127 3.0 6.0 0.02 0.24 0.09 94 999.2
20191213021808 38 133 2.0 5.0 0.03 0.24 0.09 94 999.2
20191213021308 38 134 2.0 5.0 0.03 0.23 0.08 94 999.3
20191213020808 38 143 5.0 8.0 0.03 0.23 0.08 94 999.4
20191213020308 38 134 2.0 3.0 0.04 0.23 0.08 94 999.5
20191213015808 38 136 3.0 7.0 0.04 0.23 0.08 94 999.6
20191213015308 38 144 3.0 5.0 0.03 0.22 0.07 94 999.8
20191213014808 38 115 1.0 3.0 0.03 0.22 0.07 94 999.9
20191213014308 38 139 1.0 3.0 0.04 0.22 0.07 94 999.9
20191213013808 38 144 1.0 3.0 0.04 0.22 0.07 94 1000.1
20191213013308 38 145 1.0 3.0 0.04 0.22 0.07 94 1000.2
20191213012808 38 156 2.0 3.0 0.05 0.22 0.07 94 1000.2
20191213012308 38 133 1.0 3.0 0.04 0.21 0.06 94 1000.4
20191213011808 38 132 0.0 2.0 0.03 0.20 0.06 94 1000.4
20191213011309 38 132 1.0 3.0 0.02 0.20 0.05 94 1000.5
20191213010808 38 137 2.0 5.0 0.03 0.20 0.05 94 1000.6
20191213010308 38 144 1.0 3.0 0.02 0.19 0.04 94 1000.6
20191213005808 38 138 1.0 3.0 0.03 0.19 0.04 94 1000.6
20191213005309 38 123 1.0 6.0 0.03 0.19 0.04 94 1000.8
20191213004808 38 145 2.0 5.0 0.03 0.19 0.04 94 1000.8
20191213004309 38 135 2.0 5.0 0.02 0.18 0.03 94 1000.9
20191213003808 38 113 3.0 5.0 0.02 0.18 0.03 94 1001.0
20191213003308 38 111 2.0 5.0 0.02 0.18 0.03 94 1001.0
20191213002808 38 145 3.0 5.0 0.02 0.17 0.02 94 1001.1
20191213002308 38 135 2.0 5.0 0.02 0.17 0.02 94 1001.1
20191213001808 38 86 2.0 6.0 0.02 0.17 0.02 94 1001.2
20191213001308 38 139 1.0 3.0 0.02 0.17 0.02 94 1001.3
20191213000808 38 128 2.0 5.0 0.02 0.17 0.02 94 1001.3
20191213000308 38 111 2.0 3.0 0.02 0.17 0.02 94 1001.4
20191212235808 38 120 3.0 7.0 0.01 0.16 0.01 94 1001.4
20191212235308 38 120 3.0 6.0 0.01 0.16 0.01 94 1001.5
20191212234808 38 100 2.0 6.0 0.01 0.16 0.01 94 1001.5
20191212234308 38 101 2.0 6.0 0.02 0.16 0.01 94 1001.6
20191212233808 38 90 1.0 3.0 0.02 0.16 0.01 94 1001.7
20191212233308 38 104 2.0 5.0 0.02 0.16 0.01 94 1001.8
20191212232808 38 122 2.0 6.0 0.01 0.15 0.00 94 1001.9
20191212232309 38 139 2.0 5.0 0.01 0.15 0.00 94 1002.0
20191212231808 38 117 3.0 7.0 0.01 0.15 0.00 94 1002.0
20191212231308 38 122 3.0 7.0 0.01 0.15 0.00 94 1002.0
20191212230814 38 102 2.0 6.0 0.01 0.15 0.00 94 1002.1
20191212230308 38 124 3.0 5.0 0.01 0.15 0.00 94 1002.2
20191212225808 38 105 1.0 5.0 0.01 0.15 0.15 94 1002.3
20191212225308 38 122 2.0 5.0 0.01 0.15 0.15 94 1002.4
20191212224808 38 95 1.0 3.0 0.01 0.15 0.15 94 1002.6
20191212224308 38 109 2.0 6.0 0.00 0.14 0.14 94 1002.7
20191212223808 38 139 2.0 6.0 0.01 0.14 0.14 94 1002.7
20191212223308 38 109 3.0 6.0 0.01 0.14 0.14 94 1002.8
20191212222809 38 102 2.0 5.0 0.01 0.14 0.14 94 1002.8
20191212222308 38 107 3.0 7.0 0.01 0.14 0.14 94 1002.9
20191212221808 38 98 2.0 5.0 0.01 0.14 0.14 94 1002.9
20191212221308 38 134 2.0 9.0 0.01 0.14 0.14 94 1003.0
20191212220808 38 90 2.0 5.0 0.01 0.14 0.14 94 1003.1
20191212220308 38 115 3.0 7.0 0.01 0.14 0.14 94 1003.3
20191212215808 38 127 2.0 5.0 0.01 0.14 0.14 94 1003.4
20191212215308 38 135 2.0 5.0 0.02 0.14 0.14 94 1003.5
20191212214808 38 111 1.0 3.0 0.02 0.14 0.14 94 1003.5
20191212214308 38 119 3.0 8.0 0.02 0.14 0.14 94 1003.6
20191212213808 38 106 3.0 6.0 0.02 0.13 0.13 94 1003.7
20191212213308 38 127 3.0 8.0 0.02 0.13 0.13 94 1003.7
20191212212808 38 124 3.0 5.0 0.02 0.13 0.13 94 1003.7
20191212212308 38 118 4.0 7.0 0.02 0.13 0.13 94 1003.7
20191212211808 38 148 2.0 5.0 0.02 0.13 0.13 94 1003.9
20191212211308 38 111 3.0 7.0 0.02 0.13 0.13 94 1003.9
20191212210808 38 126 3.0 7.0 0.02 0.13 0.13 94 1003.9
20191212210308 38 127 1.0 3.0 0.02 0.13 0.13 94 1004.0
20191212205808 38 129 2.0 3.0 0.02 0.13 0.13 94 1004.0
20191212205308 38 130 0.0 3.0 0.01 0.13 0.13 94 1004.0
20191212204808 38 154 1.0 6.0 0.01 0.13 0.13 94 1004.0
20191212204308 38 143 1.0 5.0 0.02 0.13 0.13 94 1004.0
20191212203809 38 135 1.0 3.0 0.01 0.12 0.12 94 1004.0
20191212203308 38 102 2.0 9.0 0.01 0.12 0.12 94 1004.0
20191212202808 38 137 3.0 9.0 0.01 0.12 0.12 94 1004.0
20191212202308 38 128 2.0 6.0 0.01 0.12 0.12 94 1004.0
20191212201808 38 115 4.0 8.0 0.01 0.12 0.12 94 1004.1
20191212201308 38 110 4.0 8.0 0.01 0.12 0.12 94 1004.2
20191212200809 38 99 5.0 9.0 0.01 0.12 0.12 94 1004.3
20191212200308 38 94 5.0 8.0 0.01 0.12 0.12 94 1004.3
20191212195808 38 103 3.0 7.0 0.01 0.12 0.12 94 1004.4
20191212195308 38 123 5.0 9.0 0.02 0.12 0.12 94 1004.4
20191212194808 38 95 4.0 10.0 0.02 0.12 0.12 94 1004.4
20191212194307 38 86 6.0 12.0 0.01 0.11 0.11 94 1004.5
20191212193808 38 100 5.0 10.0 0.01 0.11 0.11 94 1004.6
20191212193308 38 115 6.0 10.0 0.01 0.11 0.11 94 1004.7
20191212192808 38 84 3.0 8.0 0.01 0.11 0.11 94 1004.8
20191212192308 38 110 5.0 9.0 0.01 0.11 0.11 94 1004.9
20191212191808 38 102 3.0 8.0 0.01 0.11 0.11 94 1004.9
20191212191308 38 101 3.0 7.0 0.01 0.11 0.11 94 1005.0
20191212190808 38 109 3.0 9.0 0.01 0.11 0.11 94 1005.1
20191212190308 38 118 5.0 8.0 0.01 0.11 0.11 94 1005.1
20191212185808 38 108 4.0 10.0 0.01 0.11 0.11 94 1005.2
20191212185309 38 104 2.0 10.0 0.00 0.10 0.10 94 1005.2
20191212184808 38 103 4.0 9.0 0.00 0.10 0.10 94 1005.3
20191212184308 38 107 3.0 8.0 0.00 0.10 0.10 94 1005.3
20191212183808 38 115 3.0 9.0 0.00 0.10 0.10 94 1005.4
20191212183308 38 98 4.0 10.0 0.00 0.10 0.10 94 1005.4
20191212182808 38 97 7.0 13.0 0.00 0.10 0.10 94 1005.3
20191212182309 38 107 4.0 8.0 0.00 0.10 0.10 94 1005.3
20191212181808 38 92 3.0 10.0 0.00 0.10 0.10 93 1005.4
20191212181308 38 125 7.0 12.0 0.00 0.10 0.10 94 1005.5
20191212180807 38 116 4.0 8.0 0.00 0.10 0.10 93 1005.5
20191212180308 38 138 3.0 7.0 0.00 0.10 0.10 93 1005.6
20191212175808 38 86 3.0 8.0 0.00 0.10 0.10 93 1005.6
20191212175308 38 98 2.0 5.0 0.00 0.10 0.10 93 1005.7
20191212174808 37 111 3.0 7.0 0.01 0.10 0.10 93 1005.8
20191212174308 37 91 2.0 6.0 0.01 0.10 0.10 94 1005.8
20191212173808 37 98 1.0 3.0 0.01 0.10 0.10 94 1005.9
20191212173308 37 145 0.0 5.0 0.01 0.10 0.10 94 1005.9
20191212172808 37 93 2.0 3.0 0.01 0.10 0.10 94 1006.0
20191212172308 37 93 1.0 3.0 0.01 0.10 0.10 94 1006.0
20191212171808 37 127 0.0 2.0 0.01 0.10 0.10 94 1006.0
20191212171308 37 68 1.0 3.0 0.01 0.10 0.10 94 1006.0
20191212170807 37 85 0.0 0.0 0.01 0.10 0.10 94 1006.1
20191212170308 37 110 0.0 0.0 0.01 0.10 0.10 94 1006.1
20191212165808 37 110 0.0 3.0 0.01 0.10 0.10 94 1006.2
20191212165308 37 65 2.0 3.0 0.01 0.10 0.10 94 1006.3
20191212164808 37 134 0.0 0.0 0.00 0.09 0.09 94 1006.4
20191212164308 37 134 0.0 0.0 0.00 0.09 0.09 94 1006.4
20191212163808 37 134 0.0 0.0 0.00 0.09 0.09 94 1006.3
20191212163308 37 134 0.0 3.0 0.00 0.09 0.09 94 1006.4
20191212162808 37 139 0.0 3.0 0.00 0.09 0.09 94 1006.4
20191212162307 37 147 1.0 2.0 0.00 0.09 0.09 94 1006.4
20191212161807 37 76 0.0 5.0 0.00 0.09 0.09 94 1006.5
20191212161308 37 118 0.0 1.0 0.00 0.09 0.09 94 1006.6
20191212160809 37 119 0.0 2.0 0.00 0.09 0.09 94 1006.7
20191212160308 37 146 0.0 5.0 0.00 0.09 0.09 93 1006.7
20191212155807 37 110 2.0 7.0 0.00 0.09 0.09 93 1006.7
20191212155308 37 101 0.0 5.0 0.00 0.09 0.09 93 1006.7
20191212154807 37 92 2.0 7.0 0.00 0.09 0.09 93 1006.7
20191212154308 37 82 2.0 7.0 0.00 0.09 0.09 94 1006.7
20191212153808 37 110 2.0 7.0 0.00 0.09 0.09 94 1006.7
20191212153308 37 85 4.0 8.0 0.00 0.09 0.09 94 1006.7
20191212152807 37 67 3.0 7.0 0.00 0.09 0.09 94 1006.8
20191212152308 37 88 2.0 6.0 0.00 0.09 0.09 94 1006.8
20191212151808 37 140 2.0 8.0 0.00 0.09 0.09 94 1006.8
20191212151308 37 118 2.0 5.0 0.00 0.09 0.09 94 1006.8
20191212150808 37 78 2.0 5.0 0.00 0.09 0.09 94 1006.8
20191212150308 37 66 1.0 5.0 0.00 0.09 0.09 94 1006.9
20191212145808 37 98 2.0 3.0 0.00 0.09 0.09 94 1006.8
20191212145307 37 78 2.0 6.0 0.00 0.09 0.09 94 1006.9
20191212144807 37 234 1.0 3.0 0.00 0.09 0.09 94 1006.9
20191212144308 37 104 0.0 1.0 0.01 0.09 0.09 94 1006.9
20191212143808 37 104 2.0 3.0 0.01 0.09 0.09 94 1006.9
20191212143308 37 81 1.0 5.0 0.01 0.09 0.09 94 1007.0
20191212142808 37 295 0.0 0.0 0.01 0.09 0.09 94 1007.1
20191212142307 37 295 0.0 2.0 0.01 0.09 0.09 94 1007.1
20191212141807 37 295 0.0 0.0 0.01 0.09 0.09 94 1007.2
20191212141308 37 295 0.0 3.0 0.01 0.09 0.09 94 1007.3
20191212140808 37 14 2.0 3.0 0.01 0.09 0.09 94 1007.3
20191212140309 37 355 1.0 3.0 0.02 0.09 0.09 94 1007.4
20191212135808 37 297 0.0 1.0 0.02 0.09 0.09 94 1007.5
20191212135308 37 297 1.0 2.0 0.02 0.09 0.09 94 1007.6
20191212134808 37 297 0.0 1.0 0.02 0.09 0.09 94 1007.7
20191212134307 37 297 0.0 2.0 0.01 0.09 0.09 94 1007.8
20191212133807 37 297 1.0 3.0 0.01 0.09 0.09 94 1007.8
20191212133308 37 340 1.0 3.0 0.01 0.09 0.09 94 1007.8
20191212132808 37 340 2.0 3.0 0.01 0.09 0.09 94 1007.9
20191212132308 37 337 1.0 3.0 0.01 0.09 0.09 94 1008.0
20191212131807 37 345 2.0 3.0 0.01 0.09 0.09 94 1008.0
20191212131307 37 336 2.0 3.0 0.01 0.09 0.09 94 1008.0
20191212130808 37 355 1.0 3.0 0.01 0.09 0.09 94 1008.0
20191212130308 37 355 0.0 0.0 0.00 0.08 0.08 94 1008.0
20191212125808 37 11 0.0 3.0 0.00 0.08 0.08 94 1008.1
20191212125307 37 13 2.0 3.0 0.00 0.08 0.08 94 1008.1
20191212124807 37 52 1.0 3.0 0.00 0.08 0.08 94 1008.1
20191212124308 37 74 1.0 3.0 0.01 0.08 0.08 94 1008.2
20191212123808 37 338 0.0 1.0 0.01 0.08 0.08 94 1008.2
20191212123308 37 335 2.0 3.0 0.01 0.08 0.08 94 1008.3
20191212122808 37 303 0.0 1.0 0.01 0.08 0.08 94 1008.2
20191212122307 37 303 0.0 3.0 0.01 0.08 0.08 94 1008.3
20191212121807 37 355 0.0 0.0 0.01 0.08 0.08 94 1008.4
20191212121308 37 355 0.0 2.0 0.01 0.08 0.08 94 1008.3
20191212120808 37 355 0.0 2.0 0.01 0.08 0.08 94 1008.4
20191212120307 36 12 0.0 0.0 0.01 0.08 0.08 94 1008.4
20191212115807 36 12 0.0 0.0 0.01 0.08 0.08 94 1008.4
20191212115307 36 12 0.0 0.0 0.02 0.08 0.08 94 1008.6
20191212114807 36 12 0.0 2.0 0.02 0.08 0.08 94 1008.6
20191212114308 36 12 0.0 3.0 0.01 0.07 0.07 94 1008.6
20191212113808 36 12 2.0 3.0 0.01 0.07 0.07 94 1008.7
20191212113308 36 30 0.0 2.0 0.01 0.07 0.07 94 1008.8
20191212112808 36 30 1.0 3.0 0.01 0.07 0.07 94 1008.9
20191212112307 36 9 1.0 3.0 0.01 0.07 0.07 94 1008.9
20191212111808 36 9 2.0 3.0 0.01 0.07 0.07 94 1009.0
20191212111308 36 4 1.0 3.0 0.01 0.07 0.07 94 1009.0
20191212110808 36 26 0.0 3.0 0.01 0.07 0.07 94 1009.1
20191212110308 36 20 1.0 3.0 0.01 0.07 0.07 94 1009.1
20191212105807 36 29 2.0 3.0 0.02 0.07 0.07 94 1009.1
20191212105307 36 16 1.0 3.0 0.01 0.06 0.06 94 1009.3
20191212104807 35 5 2.0 3.0 0.01 0.06 0.06 94 1009.4
20191212104307 35 351 2.0 3.0 0.01 0.06 0.06 93 1009.5
20191212103808 35 345 2.0 3.0 0.01 0.06 0.06 93 1009.5
20191212103308 35 341 1.0 3.0 0.01 0.06 0.06 93 1009.5
20191212102808 35 352 1.0 3.0 0.01 0.06 0.06 93 1009.5
20191212102307 35 1 1.0 3.0 0.01 0.06 0.06 93 1009.6
20191212101807 35 5 1.0 3.0 0.01 0.06 0.06 93 1009.7
20191212101307 35 10 3.0 3.0 0.01 0.06 0.06 94 1009.7
20191212100807 35 353 2.0 3.0 0.01 0.06 0.06 94 1009.8
20191212100307 35 348 2.0 3.0 0.01 0.06 0.06 94 1009.9
20191212095807 35 346 2.0 3.0 0.01 0.06 0.06 93 1010.0
20191212095307 35 30 0.0 3.0 0.01 0.06 0.06 94 1010.1
20191212094807 35 30 1.0 3.0 0.01 0.06 0.06 94 1010.2
20191212094308 35 10 0.0 3.0 0.01 0.06 0.06 93 1010.3
20191212093808 35 34 1.0 3.0 0.01 0.06 0.06 93 1010.3
20191212093307 35 30 1.0 3.0 0.01 0.06 0.06 93 1010.3
20191212092807 35 10 0.0 0.0 0.01 0.06 0.06 93 1010.4
20191212092307 35 9 0.0 0.0 0.02 0.06 0.06 93 1010.5
20191212091810 35 16 0.0 2.0 0.02 0.06 0.06 93 1010.5
20191212091307 35 0 0.0 3.0 0.02 0.06 0.06 93 1010.5
20191212090808 35 352 1.0 3.0 0.02 0.06 0.06 93 1010.5
20191212090307 35 341 0.0 3.0 0.02 0.06 0.06 93 1010.6
20191212085807 35 341 0.0 0.0 0.02 0.05 0.05 93 1010.6
20191212085307 35 341 0.0 0.0 0.02 0.05 0.05 93 1010.7
20191212084807 35 341 0.0 0.0 0.02 0.05 0.05 93 1010.8
20191212084308 35 341 0.0 2.0 0.02 0.05 0.05 93 1010.8
20191212083808 35 341 0.0 2.0 0.02 0.05 0.05 93 1010.7
20191212083308 35 341 1.0 3.0 0.02 0.05 0.05 93 1010.8
20191212082808 35 345 2.0 3.0 0.03 0.05 0.05 93 1010.7
20191212082308 35 341 1.0 3.0 0.02 0.04 0.04 93 1010.7
20191212081807 35 331 0.0 2.0 0.02 0.04 0.04 93 1010.8
20191212081307 35 331 0.0 2.0 0.02 0.03 0.03 93 1010.8
20191212080807 35 331 0.0 0.0 0.02 0.03 0.03 93 1010.7
20191212080308 35 331 1.0 3.0 0.02 0.03 0.03 93 1010.6
20191212075808 35 324 1.0 3.0 0.02 0.03 0.03 93 1010.6
20191212075307 35 325 2.0 3.0 0.01 0.02 0.02 93 1010.7
20191212074807 35 321 1.0 3.0 0.01 0.02 0.02 93 1010.6
20191212074307 35 319 2.0 3.0 0.01 0.02 0.02 93 1010.6
20191212073807 35 0 0.0 2.0 0.01 0.02 0.02 93 1010.6
20191212073307 35 0 2.0 3.0 0.01 0.02 0.02 93 1010.6
20191212072807 35 0 1.0 2.0 0.00 0.02 0.02 93 1010.6
20191212072307 35 0 0.0 3.0 0.00 0.02 0.02 92 1010.7
20191212071807 35 0 1.0 2.0 0.00 0.02 0.02 92 1010.7
20191212071307 35 0 0.0 0.0 0.00 0.02 0.02 92 1010.7
20191212070807 35 0 0.0 1.0 0.00 0.02 0.02 92 1010.8
20191212070307 35 0 1.0 2.0 0.00 0.02 0.02 92 1010.7
20191212065808 35 0 0.0 2.0 0.01 0.02 0.02 92 1010.7
20191212065307 35 0 0.0 2.0 0.01 0.02 0.02 92 1010.7
20191212064807 35 0 1.0 3.0 0.01 0.02 0.02 92 1010.7
20191212064307 35 9 2.0 3.0 0.01 0.02 0.02 92 1010.8
20191212063807 35 26 1.0 3.0 0.01 0.02 0.02 92 1010.8
20191212063307 35 5 1.0 3.0 0.01 0.02 0.02 92 1010.8
20191212062807 35 5 2.0 3.0 0.01 0.02 0.02 92 1010.7
20191212062308 35 0 1.0 3.0 0.01 0.02 0.02 92 1010.8
20191212061807 35 0 1.0 3.0 0.01 0.02 0.02 92 1010.8
20191212061307 35 12 1.0 3.0 0.01 0.02 0.02 92 1010.8
20191212060807 35 248 0.0 0.0 0.02 0.02 0.02 92 1010.8
20191212060307 35 248 0.0 0.0 0.02 0.02 0.02 92 1010.8
20191212055808 35 248 0.0 0.0 0.01 0.01 0.01 92 1010.8
20191212055307 35 248 0.0 0.0 0.01 0.01 0.01 92 1010.8
20191212054807 35 156 0.0 0.0 0.01 0.01 0.01 92 1010.8
20191212054307 35 155 0.0 0.0 0.01 0.01 0.01 92 1010.8
20191212053807 35 155 0.0 2.0 0.01 0.01 0.01 92 1010.8
20191212053307 35 31 0.0 1.0 0.01 0.01 0.01 92 1010.8
20191212052806 35 30 0.0 1.0 0.01 0.01 0.01 92 1010.8
20191212052307 35 30 0.0 1.0 0.01 0.01 0.01 91 1010.7
20191212051807 35 39 1.0 2.0 0.01 0.01 0.01 91 1010.7
20191212051307 35 58 0.0 2.0 0.01 0.01 0.01 91 1010.6
20191212050807 35 63 0.0 0.0 0.00 0.00 0.00 91 1010.7
20191212050307 35 63 0.0 0.0 0.00 0.00 0.00 91 1010.8
20191212045808 35 71 0.0 2.0 0.00 0.00 0.00 91 1010.8
20191212045307 35 71 0.0 0.0 0.00 0.00 0.00 91 1010.7
20191212044807 35 71 0.0 1.0 0.00 0.00 0.00 91 1010.8
20191212044307 35 71 1.0 3.0 0.00 0.00 0.00 91 1010.8
20191212043807 35 119 1.0 3.0 0.00 0.00 0.00 91 1010.7
20191212043307 35 103 0.0 3.0 0.00 0.00 0.00 91 1010.8
20191212042807 35 141 0.0 2.0 0.00 0.00 0.00 91 1010.9
20191212042307 35 140 0.0 3.0 0.00 0.00 0.00 91 1010.9
20191212041807 35 142 0.0 3.0 0.00 0.00 0.00 91 1010.9
20191212041307 35 117 0.0 2.0 0.00 0.00 0.00 91 1010.9
20191212040807 35 153 0.0 2.0 0.00 0.00 0.00 91 1010.9
20191212040307 35 155 0.0 2.0 0.00 0.00 0.00 91 1010.9
20191212035807 35 149 1.0 2.0 0.00 0.00 0.00 91 1011.0
20191212035307 35 155 0.0 2.0 0.00 0.00 0.00 91 1011.0
20191212034807 35 155 1.0 3.0 0.00 0.00 0.00 91 1011.0
20191212034307 35 89 0.0 3.0 0.00 0.00 0.00 91 1011.1
20191212033807 35 62 1.0 3.0 0.00 0.00 0.00 91 1011.1
20191212033307 35 143 0.0 2.0 0.00 0.00 0.00 91 1011.2
20191212032807 35 175 2.0 3.0 0.00 0.00 0.00 91 1011.3
20191212032307 35 112 1.0 3.0 0.00 0.00 0.00 91 1011.3
20191212031807 35 337 1.0 3.0 0.00 0.00 0.00 90 1011.4
20191212031307 35 75 2.0 8.0 0.00 0.00 0.00 90 1011.3
20191212030807 35 89 3.0 7.0 0.00 0.00 0.00 90 1011.4
20191212030307 35 72 1.0 6.0 0.00 0.00 0.00 90 1011.5
20191212025807 35 107 3.0 8.0 0.00 0.00 0.00 90 1011.6
20191212025307 35 85 4.0 7.0 0.00 0.00 0.00 90 1011.7
20191212024807 35 98 2.0 5.0 0.00 0.00 0.00 89 1011.7
20191212024307 35 97 2.0 6.0 0.00 0.00 0.00 89 1011.7
20191212023807 35 93 3.0 6.0 0.00 0.00 0.00 89 1011.7
20191212023307 35 81 2.0 6.0 0.00 0.00 0.00 89 1011.7